Time;durP1;ratioP1;P1;durP2;ratioP2;P2;SDS_P1;SDS_P2;PMS_P1;PMS_P2;Temp;Humidity;BMP_temperature;BMP_pressure;BME280_temperature;BME280_humidity;BME280_pressure;Samples;Min_cycle;Max_cycle;Signal;HPM_P1;HPM_P2
2024/01/06 00:07:18;;;;;;;9.23;6.65;;;;;;;20.93;52.34;99410.69;41212283;28;20103;-68
2024/01/06 00:27:19;;;;;;;9.57;6.82;;;;;;;20.89;51.74;99396.13;41355905;28;20142;-68
2024/01/06 00:47:23;;;;;;;9.88;7.28;;;;;;;20.86;51.88;99380.63;41347256;28;20072;-68
2024/01/06 01:07:24;;;;;;;8.68;6.78;;;;;;;20.81;52.47;99366.22;41349401;28;20057;-68
2024/01/06 01:27:24;;;;;;;8.63;6.60;;;;;;;20.78;52.51;99346.28;41345839;28;20070;-68
2024/01/06 01:47:26;;;;;;;9.75;7.10;;;;;;;20.74;52.46;99355.47;41347539;28;20049;-67
2024/01/06 02:07:26;;;;;;;9.02;6.85;;;;;;;20.75;52.23;99331.63;41331323;28;20096;-68
2024/01/06 02:27:27;;;;;;;10.45;7.10;;;;;;;20.73;52.30;99312.50;41343382;28;20089;-67
2024/01/06 02:47:27;;;;;;;8.98;7.00;;;;;;;20.71;52.19;99297.81;41348382;28;20556;-68
2024/01/06 03:07:27;;;;;;;9.32;6.72;;;;;;;20.69;52.74;99279.56;41373095;28;20128;-68
2024/01/06 03:27:28;;;;;;;9.38;6.30;;;;;;;20.68;52.47;99246.31;41369384;28;20049;-69
2024/01/06 03:47:28;;;;;;;8.02;6.55;;;;;;;20.67;52.88;99259.63;41355775;28;20465;-69
2024/01/06 04:07:28;;;;;;;8.98;6.70;;;;;;;20.62;52.13;99287.16;41357376;28;20085;-69
2024/01/06 04:27:29;;;;;;;7.85;6.43;;;;;;;20.58;52.92;99277.91;41354437;28;20095;-69
2024/01/06 04:47:30;;;;;;;8.18;6.40;;;;;;;20.58;52.57;99285.81;41348366;28;20050;-69
2024/01/06 05:07:30;;;;;;;7.38;6.20;;;;;;;20.57;52.81;99273.63;41350591;28;21115;-69
2024/01/06 05:27:31;;;;;;;8.13;6.18;;;;;;;21.15;50.90;99250.72;41352023;28;20050;-69
2024/01/06 05:47:31;;;;;;;7.75;6.15;;;;;;;21.35;50.37;99272.53;41347857;28;20078;-69
2024/01/06 06:07:32;;;;;;;6.80;5.55;;;;;;;21.47;50.89;99288.97;41347480;28;20124;-68
2024/01/06 06:27:32;;;;;;;6.72;5.20;;;;;;;21.47;51.13;99285.50;41366837;28;20043;-69
2024/01/06 06:47:33;;;;;;;8.55;5.90;;;;;;;21.54;50.60;99274.19;41377509;28;20042;-73
2024/01/06 07:07:34;;;;;;;5.88;5.28;;;;;;;21.52;50.71;99280.59;41372437;28;20136;-69
2024/01/06 07:27:35;;;;;;;7.60;5.47;;;;;;;21.66;50.96;99266.13;41366756;28;20094;-69
2024/01/06 07:47:36;;;;;;;7.25;5.97;;;;;;;21.43;51.46;99262.09;41353817;28;20046;-69
2024/01/06 08:07:37;;;;;;;8.80;6.53;;;;;;;21.82;52.19;99273.38;41353589;28;20049;-68
2024/01/06 08:27:37;;;;;;;8.98;7.65;;;;;;;21.91;53.07;99297.03;41349890;28;20057;-68
2024/01/06 08:47:37;;;;;;;11.13;7.47;;;;;;;21.74;53.08;99296.03;41332102;28;20133;-67
2024/01/06 09:07:38;;;;;;;10.45;8.15;;;;;;;21.25;49.22;99290.16;41323066;28;20149;-67
2024/01/06 09:27:39;;;;;;;20.27;7.13;;;;;;;21.70;50.84;99264.84;41343636;28;20050;-71
2024/01/06 09:47:40;;;;;;;13.85;7.68;;;;;;;21.68;52.02;99251.84;41341401;28;20428;-69
2024/01/06 10:07:43;;;;;;;11.18;7.20;;;;;;;21.57;51.97;99265.22;41376826;28;20515;-75
2024/01/06 10:27:45;;;;;;;12.13;7.13;;;;;;;21.72;55.48;99266.34;41406993;28;20050;-70
2024/01/06 10:47:51;;;;;;;12.90;6.68;;;;;;;21.62;57.57;99227.88;41383238;28;20634;-72
2024/01/06 11:07:55;;;;;;;14.82;8.55;;;;;;;18.54;50.57;99204.75;41364192;28;20191;-75
2024/01/06 11:27:57;;;;;;;17.17;8.10;;;;;;;21.36;49.44;99157.50;41352371;28;20038;-69
2024/01/06 11:48:03;;;;;;;14.30;7.75;;;;;;;21.43;51.62;99116.41;41406498;28;21039;-70
2024/01/06 12:08:06;;;;;;;11.25;7.07;;;;;;;21.52;51.57;99119.94;41401680;28;20050;-68
2024/01/06 12:28:07;;;;;;;11.30;6.78;;;;;;;21.53;51.57;99084.72;41416636;28;20473;-69
2024/01/06 12:48:08;;;;;;;12.38;6.88;;;;;;;21.17;51.03;99079.50;41361167;28;20137;-68
2024/01/06 13:08:09;;;;;;;7.53;5.90;;;;;;;21.74;50.64;99111.59;41364946;28;20038;-71
2024/01/06 13:28:09;;;;;;;10.30;5.65;;;;;;;21.66;51.05;99111.53;41403174;28;20045;-74
2024/01/06 13:48:10;;;;;;;17.25;6.10;;;;;;;21.65;51.60;99094.06;41392642;28;20045;-76
2024/01/06 14:08:10;;;;;;;6.80;5.30;;;;;;;21.72;50.81;99086.38;41386171;28;20495;-71
2024/01/06 14:28:11;;;;;;;10.23;7.10;;;;;;;21.40;48.59;99091.22;41366498;28;20047;-66
2024/01/06 14:48:11;;;;;;;16.42;9.02;;;;;;;21.14;48.00;99091.16;41364776;28;20093;-67
2024/01/06 15:08:12;;;;;;;13.18;8.77;;;;;;;21.37;48.61;99103.84;41396752;28;20046;-72
2024/01/06 15:28:13;;;;;;;20.38;9.43;;;;;;;21.67;50.66;99075.50;41384867;28;20057;-73
2024/01/06 15:48:14;;;;;;;16.48;9.20;;;;;;;21.75;51.46;99068.47;41378508;28;20042;-71
2024/01/06 16:08:14;;;;;;;20.75;10.15;;;;;;;21.81;51.35;99055.66;41271045;28;20062;-78
2024/01/06 16:28:15;;;;;;;16.50;9.32;;;;;;;21.79;51.64;99047.91;41373018;28;20054;-72
2024/01/06 16:48:15;;;;;;;25.88;12.15;;;;;;;22.12;54.12;99044.59;41327764;28;20062;-70
2024/01/06 17:08:16;;;;;;;36.33;21.67;;;;;;;22.35;55.29;99034.31;41365416;28;20493;-73
2024/01/06 17:28:16;;;;;;;38.15;24.00;;;;;;;22.57;56.01;99046.13;41333031;28;20058;-74
2024/01/06 17:48:17;;;;;;;165.98;109.68;;;;;;;22.58;55.42;99054.88;41339270;28;20076;-69
2024/01/06 18:08:17;;;;;;;131.25;90.15;;;;;;;22.43;56.21;99042.28;41364016;28;20046;-72
2024/01/06 18:28:24;;;;;;;102.82;67.78;;;;;;;22.32;55.32;99029.38;41369800;28;20065;-73
2024/01/06 18:48:24;;;;;;;85.88;53.88;;;;;;;22.15;54.16;99036.38;41378964;28;20535;-75
2024/01/06 19:08:24;;;;;;;68.45;44.20;;;;;;;22.09;54.09;99008.03;41391505;28;20061;-74
2024/01/06 19:28:25;;;;;;;60.20;37.50;;;;;;;21.96;54.51;99004.03;41340339;28;20054;-71
2024/01/06 19:48:25;;;;;;;52.05;32.45;;;;;;;21.90;54.02;99002.81;41354461;28;20441;-69
2024/01/06 20:08:25;;;;;;;35.00;22.10;;;;;;;21.56;50.69;98994.88;41352583;28;20041;-70
2024/01/06 20:28:26;;;;;;;38.58;24.25;;;;;;;21.57;54.26;98978.13;41384973;28;20501;-71
2024/01/06 20:48:26;;;;;;;40.30;25.05;;;;;;;21.63;55.86;98969.59;41377783;28;20244;-72
2024/01/06 21:08:27;;;;;;;37.05;22.98;;;;;;;21.50;55.62;98966.53;41358116;28;20053;-70
2024/01/06 21:28:27;;;;;;;24.30;18.45;;;;;;;20.87;54.69;98942.06;41358211;28;20042;-74
2024/01/06 21:48:29;;;;;;;21.58;16.42;;;;;;;21.27;55.00;98943.34;41361706;28;20054;-72
2024/01/06 22:08:31;;;;;;;21.38;15.55;;;;;;;21.25;56.03;98925.06;41420691;28;20788;-72
2024/01/06 22:28:32;;;;;;;19.73;14.82;;;;;;;21.25;56.08;98924.22;41386482;28;20038;-72
2024/01/06 22:48:32;;;;;;;16.15;12.90;;;;;;;21.21;56.54;98915.81;41319023;28;20577;-71
2024/01/06 23:08:36;;;;;;;16.38;12.05;;;;;;;21.15;56.70;98913.00;41353310;28;20456;-72
2024/01/06 23:28:36;;;;;;;15.10;11.52;;;;;;;21.19;56.44;98917.78;41383391;28;20100;-71
2024/01/06 23:48:36;;;;;;;13.25;11.15;;;;;;;21.16;56.43;98914.66;41372589;28;20046;-73
